Time;durP1;ratioP1;P1;durP2;ratioP2;P2;SDS_P1;SDS_P2;PMS_P1;PMS_P2;Temp;Humidity;BMP_temperature;BMP_pressure;BME280_temperature;BME280_humidity;BME280_pressure;Samples;Min_cycle;Max_cycle;Signal;HPM_P1;HPM_P2
2023/04/27 00:01:59;;;;;;;18.27;9.38;;;;;;;4.37;100.00;102006.97;5081580;27;20101;-70
2023/04/27 00:04:25;;;;;;;17.65;8.05;;;;;;;4.39;100.00;102016.56;5095492;27;20051;-72
2023/04/27 00:06:51;;;;;;;22.75;8.70;;;;;;;4.25;100.00;102013.31;5102771;27;20044;-72
2023/04/27 00:09:16;;;;;;;19.75;9.45;;;;;;;4.06;100.00;102015.41;5076106;27;20105;-72
2023/04/27 00:11:42;;;;;;;20.35;10.20;;;;;;;4.05;100.00;102013.66;5094841;27;20086;-70
2023/04/27 00:14:07;;;;;;;21.38;10.05;;;;;;;3.88;100.00;102021.03;5098056;27;20028;-72
2023/04/27 00:16:33;;;;;;;18.17;9.65;;;;;;;3.84;100.00;102020.19;5096433;27;20036;-71
2023/04/27 00:18:59;;;;;;;17.52;9.18;;;;;;;3.86;100.00;102018.38;5099733;27;20047;-72
2023/04/27 00:21:25;;;;;;;19.20;9.30;;;;;;;3.88;100.00;102024.53;5105590;27;20036;-72
2023/04/27 00:23:51;;;;;;;17.60;8.57;;;;;;;3.89;100.00;102041.22;5095062;27;20051;-72
2023/04/27 00:26:16;;;;;;;23.02;9.05;;;;;;;3.81;100.00;102041.34;5100595;27;20059;-71
2023/04/27 00:28:45;;;;;;;14.80;8.80;;;;;;;3.76;100.00;102043.19;5087221;27;20140;-71
2023/04/27 00:31:11;;;;;;;17.38;8.70;;;;;;;3.74;100.00;102036.19;5097329;27;20028;-72
2023/04/27 00:33:36;;;;;;;14.68;8.10;;;;;;;3.79;100.00;102032.59;5102465;27;20555;-71
2023/04/27 00:36:02;;;;;;;17.25;9.50;;;;;;;3.77;100.00;102038.81;5095922;27;20040;-70
2023/04/27 00:38:29;;;;;;;18.15;9.27;;;;;;;3.81;100.00;102040.47;5101580;27;20107;-70
2023/04/27 00:41:05;;;;;;;18.83;9.30;;;;;;;3.80;100.00;102041.38;5083032;27;20078;-70
2023/04/27 00:43:32;;;;;;;15.85;9.98;;;;;;;3.80;100.00;102041.38;5096390;27;20923;-70
2023/04/27 00:45:58;;;;;;;16.88;8.65;;;;;;;3.78;100.00;102041.41;5083350;28;20032;-71
2023/04/27 00:48:24;;;;;;;18.42;8.20;;;;;;;3.75;100.00;102040.56;5093882;27;20326;-71
2023/04/27 00:50:51;;;;;;;20.10;9.32;;;;;;;3.68;100.00;102028.38;5076849;27;20052;-72
2023/04/27 00:53:17;;;;;;;11.85;6.97;;;;;;;3.54;100.00;102039.13;5096712;27;20038;-71
2023/04/27 00:55:42;;;;;;;11.30;6.97;;;;;;;3.47;100.00;102041.00;5098422;27;20032;-71
2023/04/27 00:58:08;;;;;;;14.50;8.13;;;;;;;3.42;100.00;102036.69;5082880;27;20790;-69
2023/04/27 01:00:39;;;;;;;13.32;7.68;;;;;;;3.42;100.00;102036.69;5075851;27;20040;-71
2023/04/27 01:03:05;;;;;;;15.20;7.70;;;;;;;3.47;100.00;102034.88;5084496;27;20031;-73
2023/04/27 01:05:31;;;;;;;14.52;9.20;;;;;;;3.48;100.00;102039.25;5094650;27;20039;-73
2023/04/27 01:07:56;;;;;;;19.38;9.23;;;;;;;3.42;100.00;102042.84;5075609;27;20507;-73
2023/04/27 01:10:22;;;;;;;12.68;7.55;;;;;;;3.31;100.00;102045.63;5084426;28;20074;-72
2023/04/27 01:12:47;;;;;;;20.30;9.55;;;;;;;3.37;100.00;102044.66;5094706;27;20089;-72
2023/04/27 01:15:13;;;;;;;20.15;9.52;;;;;;;3.35;100.00;102055.22;5099722;27;20315;-72
2023/04/27 01:17:38;;;;;;;14.15;8.45;;;;;;;3.29;100.00;102047.41;5095315;27;20047;-71
2023/04/27 01:20:06;;;;;;;14.55;7.78;;;;;;;3.34;100.00;102053.47;5077969;27;20040;-70
2023/04/27 01:22:31;;;;;;;19.55;8.43;;;;;;;3.35;100.00;102039.41;5093613;27;20040;-73
2023/04/27 01:24:57;;;;;;;14.77;7.65;;;;;;;3.29;100.00;102042.13;5070135;27;20040;-70
2023/04/27 01:27:23;;;;;;;14.70;8.30;;;;;;;3.34;100.00;102035.03;5099742;27;20036;-70
2023/04/27 01:29:50;;;;;;;18.52;8.57;;;;;;;3.13;100.00;102029.19;5098874;27;20064;-70
2023/04/27 01:32:16;;;;;;;16.20;8.02;;;;;;;3.11;100.00;102039.72;5077829;27;20393;-70
2023/04/27 01:34:41;;;;;;;14.57;7.90;;;;;;;3.05;100.00;102034.53;5080660;27;20036;-70
2023/04/27 01:37:07;;;;;;;11.93;7.50;;;;;;;3.04;100.00;102025.78;5083179;27;20032;-71
2023/04/27 01:39:32;;;;;;;14.35;7.50;;;;;;;3.02;100.00;102031.97;5094345;27;20315;-70
2023/04/27 01:41:59;;;;;;;15.38;7.15;;;;;;;3.01;100.00;102031.09;5102027;27;20031;-70
2023/04/27 01:44:25;;;;;;;17.83;8.93;;;;;;;3.12;100.00;102033.59;5094447;27;20457;-70
2023/04/27 01:46:50;;;;;;;12.05;7.45;;;;;;;2.88;100.00;102036.53;5097882;27;20040;-70
2023/04/27 01:49:16;;;;;;;13.18;7.68;;;;;;;2.92;100.00;102044.38;5103810;27;20048;-70
2023/04/27 01:51:41;;;;;;;15.02;7.60;;;;;;;2.89;100.00;102044.41;5076692;28;20032;-70
2023/04/27 01:54:07;;;;;;;14.15;8.13;;;;;;;2.96;100.00;102034.66;5076433;27;20032;-72
2023/04/27 01:56:35;;;;;;;20.30;9.45;;;;;;;2.95;100.00;102036.41;5061709;27;20032;-72
2023/04/27 01:59:00;;;;;;;20.73;9.00;;;;;;;2.96;100.00;102026.75;5075720;28;20043;-70
2023/04/27 02:01:25;;;;;;;23.08;10.20;;;;;;;2.71;100.00;102027.09;5094629;27;20032;-72
2023/04/27 02:03:51;;;;;;;24.17;12.43;;;;;;;2.68;100.00;102029.75;5075890;28;20078;-72
2023/04/27 02:06:17;;;;;;;19.58;9.82;;;;;;;2.73;100.00;102033.19;5093552;27;20061;-71
2023/04/27 02:08:44;;;;;;;14.68;8.80;;;;;;;2.74;100.00;102034.06;5075301;27;20139;-71
2023/04/27 02:11:09;;;;;;;15.70;8.00;;;;;;;2.67;100.00;102035.91;5085205;28;20401;-71
2023/04/27 02:13:35;;;;;;;11.65;6.97;;;;;;;2.57;100.00;102036.91;5074767;28;20068;-73
2023/04/27 02:16:03;;;;;;;11.55;6.30;;;;;;;2.62;100.00;102029.81;5080910;27;20055;-72
2023/04/27 02:18:28;;;;;;;11.20;6.38;;;;;;;2.63;100.00;102028.06;5092410;27;20024;-72
2023/04/27 02:20:54;;;;;;;12.77;6.68;;;;;;;2.60;100.00;102023.69;5078797;28;20048;-71
2023/04/27 02:23:19;;;;;;;13.20;8.30;;;;;;;2.62;100.00;102026.31;5093745;27;20044;-71
2023/04/27 02:25:45;;;;;;;14.90;7.68;;;;;;;2.52;100.00;102017.66;5097239;27;20465;-71
2023/04/27 02:28:12;;;;;;;17.73;8.80;;;;;;;2.51;100.00;102018.50;5090477;27;20032;-70
2023/04/27 02:30:38;;;;;;;16.35;9.00;;;;;;;2.41;100.00;102030.03;5073153;28;20143;-71
2023/04/27 02:33:04;;;;;;;15.00;8.00;;;;;;;2.39;100.00;102019.53;5096574;27;21119;-71
2023/04/27 02:35:32;;;;;;;13.68;7.72;;;;;;;2.41;100.00;102017.78;5097643;27;20036;-70
2023/04/27 02:37:58;;;;;;;13.50;8.07;;;;;;;2.33;100.00;102020.47;5079203;28;20035;-70
2023/04/27 02:40:24;;;;;;;13.88;7.53;;;;;;;2.34;100.00;102024.84;5094687;27;20075;-70
2023/04/27 02:42:50;;;;;;;11.68;7.57;;;;;;;2.30;100.00;102015.22;5097153;27;20071;-72
2023/04/27 02:45:16;;;;;;;13.73;7.07;;;;;;;2.34;100.00;102011.69;5065540;27;20119;-72
2023/04/27 02:47:41;;;;;;;11.63;6.80;;;;;;;2.37;100.00;102026.56;5062676;27;20110;-72
2023/04/27 02:50:07;;;;;;;12.80;7.90;;;;;;;2.24;100.00;102031.06;5078979;28;20734;-73
2023/04/27 02:52:34;;;;;;;22.50;8.98;;;;;;;2.25;100.00;102026.69;5076052;27;20068;-70
2023/04/27 02:54:59;;;;;;;10.32;6.85;;;;;;;2.22;100.00;102027.59;5081491;28;20032;-70
2023/04/27 02:57:26;;;;;;;14.57;8.00;;;;;;;2.20;100.00;102024.09;5076084;27;20086;-72
2023/04/27 02:59:52;;;;;;;12.52;7.43;;;;;;;2.14;100.00;102023.28;5078278;27;20027;-70
2023/04/27 03:02:18;;;;;;;18.40;7.13;;;;;;;2.09;100.00;102020.69;5085794;27;20086;-70
2023/04/27 03:04:43;;;;;;;15.85;7.88;;;;;;;2.04;100.00;102018.09;5092791;27;20105;-71
2023/04/27 03:07:10;;;;;;;11.93;6.95;;;;;;;2.07;100.00;102023.34;5092777;27;20036;-71
2023/04/27 03:09:36;;;;;;;15.35;7.80;;;;;;;2.10;100.00;102017.19;5093402;27;20058;-71
2023/04/27 03:12:02;;;;;;;11.98;7.35;;;;;;;2.09;100.00;102012.81;5082523;27;20798;-71
2023/04/27 03:14:27;;;;;;;14.10;8.48;;;;;;;2.08;100.00;102019.84;5075611;28;20042;-70
2023/04/27 03:16:54;;;;;;;15.63;7.55;;;;;;;2.01;100.00;102019.91;5101175;27;20036;-70
2023/04/27 03:19:20;;;;;;;13.00;6.60;;;;;;;1.94;100.00;102019.06;5080062;27;20040;-70
2023/04/27 03:21:46;;;;;;;14.90;7.18;;;;;;;1.88;100.00;102024.41;5077100;27;20036;-72
2023/04/27 03:24:11;;;;;;;13.95;7.93;;;;;;;1.85;100.00;102029.66;5076676;27;20040;-72
2023/04/27 03:26:36;;;;;;;16.83;8.30;;;;;;;1.81;100.00;102031.47;5096499;27;20048;-71
2023/04/27 03:29:02;;;;;;;14.98;7.25;;;;;;;1.74;100.00;102036.78;5095647;27;20062;-71
2023/04/27 03:31:28;;;;;;;14.05;7.15;;;;;;;1.66;100.00;102031.59;5076132;27;20781;-71
2023/04/27 03:33:54;;;;;;;16.70;8.02;;;;;;;1.72;100.00;102028.91;5076198;28;20047;-70
2023/04/27 03:36:21;;;;;;;16.17;8.45;;;;;;;1.74;100.00;102027.13;5100333;27;20036;-71
2023/04/27 03:38:46;;;;;;;14.50;8.30;;;;;;;1.81;100.00;102036.72;5080293;27;20138;-72
2023/04/27 03:41:12;;;;;;;18.20;8.68;;;;;;;1.81;100.00;102031.47;5079742;27;20040;-72
2023/04/27 03:43:38;;;;;;;18.67;8.75;;;;;;;1.86;100.00;102038.44;5059266;27;20133;-70
2023/04/27 03:46:03;;;;;;;15.77;9.20;;;;;;;1.85;100.00;102039.31;5095685;27;20032;-69
2023/04/27 03:48:29;;;;;;;16.15;8.63;;;;;;;1.85;100.00;102036.69;5095802;27;20028;-70
2023/04/27 03:50:55;;;;;;;16.70;8.52;;;;;;;1.82;100.00;102045.50;5077748;28;20168;-70
2023/04/27 03:53:20;;;;;;;23.17;9.15;;;;;;;1.68;100.00;102045.59;5076964;27;20033;-72
2023/04/27 03:55:46;;;;;;;13.98;8.25;;;;;;;1.67;100.00;102046.47;5077934;27;20745;-72
2023/04/27 03:58:13;;;;;;;21.10;9.35;;;;;;;1.69;100.00;102044.69;5076150;27;20024;-71
2023/04/27 04:00:53;;;;;;;18.67;9.02;;;;;;;1.72;100.00;102049.94;5083612;27;21130;-70
2023/04/27 04:03:19;;;;;;;26.48;13.10;;;;;;;1.75;100.00;102049.03;5087547;27;20073;-70
2023/04/27 04:05:45;;;;;;;14.10;7.68;;;;;;;1.72;100.00;102060.47;5083392;28;20070;-70
2023/04/27 04:08:12;;;;;;;17.73;9.15;;;;;;;1.75;100.00;102054.28;5083066;28;20052;-71
2023/04/27 04:10:38;;;;;;;18.25;9.52;;;;;;;1.75;100.00;102059.56;5100858;27;20854;-71
2023/04/27 04:13:03;;;;;;;17.52;9.40;;;;;;;1.72;100.00;102057.84;5077096;28;20043;-70
2023/04/27 04:15:29;;;;;;;15.30;8.35;;;;;;;1.70;100.00;102061.34;5086157;27;20032;-70
2023/04/27 04:17:54;;;;;;;14.13;8.65;;;;;;;1.75;100.00;102052.53;5081145;27;20464;-70
2023/04/27 04:20:20;;;;;;;16.05;8.70;;;;;;;1.72;100.00;102060.47;5083273;27;20046;-70
2023/04/27 04:22:45;;;;;;;15.02;9.23;;;;;;;1.79;100.00;102061.28;5079670;27;20950;-70
2023/04/27 04:25:11;;;;;;;17.00;8.85;;;;;;;1.88;100.00;102055.97;5081309;28;20035;-72
2023/04/27 04:27:37;;;;;;;22.60;9.18;;;;;;;2.13;100.00;102059.25;5076119;27;20121;-72
2023/04/27 04:30:05;;;;;;;20.17;9.90;;;;;;;2.58;100.00;102051.78;5094776;27;20044;-72
2023/04/27 04:32:32;;;;;;;15.45;8.45;;;;;;;3.05;100.00;102053.00;5075732;27;20183;-72
2023/04/27 04:35:00;;;;;;;23.20;9.32;;;;;;;3.51;100.00;102050.59;5097809;27;20036;-72
2023/04/27 04:37:26;;;;;;;20.45;10.05;;;;;;;4.03;100.00;102044.50;5079758;28;20054;-69
2023/04/27 04:39:52;;;;;;;16.88;8.80;;;;;;;4.59;100.00;102036.47;5079353;28;20584;-69
2023/04/27 04:42:17;;;;;;;14.88;9.70;;;;;;;5.16;100.00;102036.16;5063192;27;20854;-72
2023/04/27 04:44:43;;;;;;;19.58;10.65;;;;;;;5.30;100.00;102027.94;5094390;27;20032;-69
2023/04/27 04:47:09;;;;;;;21.70;11.00;;;;;;;5.97;100.00;102035.19;5086197;27;20063;-69
2023/04/27 04:49:35;;;;;;;20.98;10.68;;;;;;;6.57;96.44;102032.72;5099594;27;20047;-69
2023/04/27 04:52:01;;;;;;;20.25;11.38;;;;;;;7.29;90.63;102038.59;5081704;27;20027;-70
2023/04/27 04:54:26;;;;;;;13.30;8.23;;;;;;;7.58;84.16;102041.22;5074818;27;20032;-70
2023/04/27 04:56:53;;;;;;;13.63;8.20;;;;;;;7.89;80.55;102032.28;5065438;27;20036;-69
2023/04/27 04:59:19;;;;;;;13.73;8.25;;;;;;;8.21;77.59;102031.19;5077807;27;20040;-70
2023/04/27 05:01:44;;;;;;;14.63;8.38;;;;;;;7.93;77.66;102044.50;5078272;27;20027;-69
2023/04/27 05:04:10;;;;;;;11.77;7.57;;;;;;;7.31;80.08;102040.28;5093552;27;20044;-70
2023/04/27 05:06:36;;;;;;;16.23;9.57;;;;;;;7.47;82.48;102048.63;5057437;28;20043;-70
2023/04/27 05:09:01;;;;;;;16.55;10.15;;;;;;;7.82;80.33;102050.16;5073914;28;20036;-70
2023/04/27 05:11:27;;;;;;;21.40;12.00;;;;;;;7.79;82.56;102044.97;5091722;27;20091;-70
2023/04/27 05:13:52;;;;;;;17.40;9.02;;;;;;;8.67;79.85;102037.56;5091858;27;20027;-70
2023/04/27 05:16:18;;;;;;;22.73;10.98;;;;;;;9.02;76.05;102042.44;5096083;27;20889;-72
2023/04/27 05:18:43;;;;;;;20.70;11.77;;;;;;;9.33;75.17;102041.25;5092175;27;20514;-72
2023/04/27 05:21:16;;;;;;;21.13;11.43;;;;;;;8.27;73.92;102044.25;5092084;27;20027;-72
2023/04/27 05:23:42;;;;;;;22.58;11.52;;;;;;;9.53;74.49;102040.47;5090973;27;20039;-71
2023/04/27 05:26:15;;;;;;;16.77;10.52;;;;;;;9.12;72.43;102039.44;5091757;27;20075;-72
2023/04/27 05:28:41;;;;;;;18.05;9.88;;;;;;;9.98;71.77;102043.06;5091532;27;20182;-71
2023/04/27 05:31:06;;;;;;;12.77;9.27;;;;;;;9.98;70.90;102035.06;5091865;27;20102;-71
2023/04/27 05:33:32;;;;;;;14.50;10.70;;;;;;;9.91;68.51;102038.94;5072918;27;20036;-71
2023/04/27 05:35:58;;;;;;;21.98;10.93;;;;;;;9.27;72.00;102045.03;5082583;27;20044;-72
2023/04/27 05:38:24;;;;;;;23.67;12.10;;;;;;;9.14;74.66;102040.25;5092789;27;20046;-70
2023/04/27 05:40:57;;;;;;;24.90;16.20;;;;;;;9.19;73.99;102039.16;5079002;27;20111;-70
2023/04/27 05:43:23;;;;;;;19.80;13.30;;;;;;;9.17;74.33;102035.66;5064720;28;20036;-70
2023/04/27 05:45:49;;;;;;;18.48;10.80;;;;;;;9.54;74.03;102034.25;5078498;27;20128;-71
2023/04/27 05:48:15;;;;;;;18.92;11.60;;;;;;;9.48;72.89;102034.47;5091230;27;20036;-72
2023/04/27 05:50:40;;;;;;;31.00;13.30;;;;;;;9.35;74.06;102042.09;5091625;27;20052;-71
2023/04/27 05:53:06;;;;;;;23.83;12.07;;;;;;;8.37;78.20;102044.84;5092165;27;20787;-71
2023/04/27 05:55:32;;;;;;;27.50;13.07;;;;;;;8.95;77.87;102048.06;5092419;27;20032;-71
2023/04/27 05:57:58;;;;;;;28.02;13.48;;;;;;;9.07;76.87;102053.78;5092528;27;20042;-71
2023/04/27 06:00:23;;;;;;;27.00;12.52;;;;;;;9.17;76.43;102051.63;5095333;27;20516;-70
2023/04/27 06:02:49;;;;;;;24.95;11.80;;;;;;;9.24;76.97;102046.97;5102709;27;20047;-72
2023/04/27 06:05:15;;;;;;;26.15;11.13;;;;;;;9.44;76.57;102057.72;5098314;27;20040;-70
2023/04/27 06:07:42;;;;;;;20.35;10.82;;;;;;;9.74;77.05;102052.97;5101691;27;20044;-70
2023/04/27 06:10:09;;;;;;;22.88;10.50;;;;;;;9.97;73.37;102045.81;5097153;27;20067;-72
2023/04/27 06:12:34;;;;;;;19.60;9.35;;;;;;;9.75;73.06;102053.81;5090511;27;20039;-72
2023/04/27 06:15:02;;;;;;;17.40;9.00;;;;;;;9.97;73.52;102054.66;5099114;27;20034;-72
2023/04/27 06:17:28;;;;;;;15.95;8.70;;;;;;;10.13;73.66;102047.75;5095938;27;20032;-72
2023/04/27 06:19:53;;;;;;;11.63;8.25;;;;;;;10.57;72.41;102041.50;5077589;27;20166;-72
2023/04/27 06:22:19;;;;;;;17.42;7.82;;;;;;;10.41;71.90;102049.28;5099792;27;20047;-70
2023/04/27 06:24:45;;;;;;;13.00;7.50;;;;;;;10.10;71.24;102049.72;5083020;27;20036;-72
2023/04/27 06:27:12;;;;;;;11.20;6.97;;;;;;;9.69;71.29;102046.97;5079895;27;20067;-72
2023/04/27 06:29:37;;;;;;;15.52;7.15;;;;;;;9.94;72.88;102041.50;5074877;27;20028;-71
2023/04/27 06:32:05;;;;;;;13.25;7.50;;;;;;;10.08;72.31;102036.44;5078977;27;20130;-71
2023/04/27 06:34:35;;;;;;;13.55;7.15;;;;;;;10.37;71.29;102040.56;5080701;27;20031;-71
2023/04/27 06:37:01;;;;;;;14.48;6.20;;;;;;;10.33;70.65;102040.75;5099895;27;20071;-71
2023/04/27 06:39:26;;;;;;;12.50;5.82;;;;;;;10.03;69.73;102038.41;5088219;27;20047;-72
2023/04/27 06:41:52;;;;;;;13.18;6.07;;;;;;;10.24;70.18;102042.03;5096261;27;20040;-72
2023/04/27 06:44:18;;;;;;;14.45;6.95;;;;;;;10.98;70.45;102038.75;5071315;27;21386;-73
2023/04/27 06:46:43;;;;;;;20.25;6.07;;;;;;;10.64;71.00;102026.94;5078987;27;20063;-72
2023/04/27 06:49:09;;;;;;;11.68;6.15;;;;;;;10.87;69.34;102028.56;5100008;27;20028;-72
2023/04/27 06:51:35;;;;;;;11.18;5.40;;;;;;;10.81;69.62;102026.19;5101419;27;20877;-72
2023/04/27 06:54:00;;;;;;;7.53;4.65;;;;;;;10.89;68.46;102032.03;5069727;27;20047;-72
2023/04/27 06:56:26;;;;;;;12.15;5.20;;;;;;;10.95;66.66;102036.25;5100766;27;20040;-72
2023/04/27 06:58:51;;;;;;;8.25;4.70;;;;;;;10.43;66.12;102028.75;5091890;27;20036;-71
2023/04/27 07:01:17;;;;;;;12.02;4.25;;;;;;;10.36;66.00;102030.81;5077034;27;20036;-72
2023/04/27 07:03:42;;;;;;;13.52;4.40;;;;;;;10.41;65.55;102032.44;5078129;27;20036;-72
2023/04/27 07:06:08;;;;;;;9.68;4.10;;;;;;;10.63;65.25;102031.41;5093821;27;20038;-71
2023/04/27 07:08:33;;;;;;;12.52;5.47;;;;;;;10.55;64.34;102027.38;5078383;27;20040;-72
2023/04/27 07:10:59;;;;;;;12.05;4.72;;;;;;;10.79;64.79;102034.28;5100324;27;20035;-72
2023/04/27 07:13:24;;;;;;;10.68;4.75;;;;;;;10.79;63.84;102033.38;5097175;27;20039;-72
2023/04/27 07:15:56;;;;;;;11.68;4.85;;;;;;;10.68;61.79;102033.00;5074664;27;20827;-72
2023/04/27 07:18:22;;;;;;;10.70;4.78;;;;;;;11.02;63.41;102038.56;5076733;27;20173;-72
2023/04/27 07:20:48;;;;;;;10.90;4.57;;;;;;;10.21;63.01;102042.13;5066229;27;20110;-72
2023/04/27 07:23:13;;;;;;;10.20;5.03;;;;;;;10.60;64.05;102041.38;5093978;27;20164;-72
2023/04/27 07:25:39;;;;;;;10.77;4.85;;;;;;;10.99;64.59;102041.34;5094874;27;20035;-72
2023/04/27 07:28:04;;;;;;;12.13;5.30;;;;;;;11.13;63.66;102049.59;5095345;27;20032;-70
2023/04/27 07:30:30;;;;;;;13.05;5.03;;;;;;;10.83;61.92;102043.84;5083456;27;20028;-70
2023/04/27 07:32:56;;;;;;;10.10;4.95;;;;;;;11.18;62.47;102049.38;5071214;27;20449;-72
2023/04/27 07:35:22;;;;;;;10.68;5.32;;;;;;;11.25;63.39;102053.50;5095533;27;20032;-72
2023/04/27 07:37:48;;;;;;;11.70;6.20;;;;;;;11.44;63.38;102057.97;5085010;27;20131;-72
2023/04/27 07:40:15;;;;;;;9.98;5.10;;;;;;;11.59;62.48;102065.25;5077158;27;20032;-72
2023/04/27 07:42:45;;;;;;;9.15;4.82;;;;;;;11.39;61.71;102058.19;5065723;27;20044;-72
2023/04/27 07:45:11;;;;;;;11.07;4.82;;;;;;;11.81;59.46;102065.09;5098036;27;20203;-72
2023/04/27 07:47:37;;;;;;;15.98;5.50;;;;;;;11.66;59.70;102066.72;5096990;27;20089;-70
2023/04/27 07:50:06;;;;;;;11.30;4.80;;;;;;;11.87;58.34;102064.81;5089841;27;20048;-72
2023/04/27 07:52:31;;;;;;;8.57;4.63;;;;;;;11.97;60.25;102067.91;5070956;27;20068;-72
2023/04/27 07:54:57;;;;;;;13.07;5.20;;;;;;;12.03;58.90;102070.28;5082181;28;20633;-73
2023/04/27 07:57:23;;;;;;;5.82;4.45;;;;;;;11.95;58.30;102065.31;5092868;27;20618;-73
2023/04/27 07:59:48;;;;;;;7.88;3.55;;;;;;;11.42;54.63;102050.03;5077660;27;20139;-73
2023/04/27 08:02:14;;;;;;;10.77;4.28;;;;;;;12.05;58.17;102052.34;5093269;27;20039;-73
2023/04/27 08:04:40;;;;;;;5.90;3.83;;;;;;;12.11;57.55;102058.25;5092729;27;20067;-71
2023/04/27 08:07:06;;;;;;;12.55;4.80;;;;;;;12.48;55.78;102056.38;5068039;27;20030;-71
2023/04/27 08:09:32;;;;;;;8.40;4.82;;;;;;;12.53;58.68;102051.66;5056115;27;20834;-72
2023/04/27 08:11:57;;;;;;;11.32;5.40;;;;;;;12.10;56.50;102050.31;5073836;27;20134;-73
2023/04/27 08:14:23;;;;;;;12.93;4.88;;;;;;;12.06;55.71;102049.59;5071972;27;20070;-72
2023/04/27 08:16:50;;;;;;;12.20;4.95;;;;;;;11.61;56.56;102052.69;5075952;27;20097;-72
2023/04/27 08:19:17;;;;;;;7.68;4.70;;;;;;;12.21;56.89;102042.63;5094259;27;20083;-71
2023/04/27 08:21:42;;;;;;;8.02;4.57;;;;;;;12.12;56.61;102043.94;5063746;27;20178;-72
2023/04/27 08:24:08;;;;;;;6.95;4.70;;;;;;;11.43;56.43;102050.91;5099237;27;20164;-72
2023/04/27 08:26:34;;;;;;;5.63;3.92;;;;;;;11.72;53.93;102047.69;5092335;27;20830;-72
2023/04/27 08:29:00;;;;;;;8.70;5.07;;;;;;;11.39;55.53;102052.84;5091336;27;20633;-72
2023/04/27 08:31:27;;;;;;;6.93;4.75;;;;;;;11.65;55.85;102049.81;5075439;27;20071;-70
2023/04/27 08:33:52;;;;;;;7.85;4.47;;;;;;;11.55;53.29;102059.22;5079663;27;20068;-70
2023/04/27 08:36:23;;;;;;;9.02;4.47;;;;;;;11.82;54.41;102056.16;5071927;28;20081;-70
2023/04/27 08:38:50;;;;;;;11.82;4.25;;;;;;;12.23;53.91;102045.22;5083515;27;20070;-70
2023/04/27 08:41:20;;;;;;;13.30;4.72;;;;;;;12.16;53.92;102040.19;5089343;27;20056;-70
2023/04/27 08:43:50;;;;;;;6.15;3.53;;;;;;;12.13;51.11;102034.97;5075783;27;20193;-71
2023/04/27 08:46:23;;;;;;;9.77;3.80;;;;;;;11.77;51.52;102045.66;5072232;27;20039;-73
2023/04/27 08:48:50;;;;;;;13.15;4.85;;;;;;;11.53;52.70;102046.84;5093177;27;20044;-70
2023/04/27 08:51:16;;;;;;;5.82;3.58;;;;;;;11.95;51.84;102043.94;5092314;27;20059;-70
2023/04/27 08:53:53;;;;;;;9.50;4.22;;;;;;;11.99;51.41;102041.94;5070049;27;20040;-70
2023/04/27 08:56:22;;;;;;;10.25;4.68;;;;;;;12.03;53.32;102030.16;5082597;27;20126;-70
2023/04/27 08:58:48;;;;;;;8.35;4.18;;;;;;;12.33;53.07;102033.09;5093987;27;20143;-70
2023/04/27 09:01:14;;;;;;;7.00;4.82;;;;;;;12.57;53.75;102029.13;5092610;27;20075;-70
2023/04/27 09:03:41;;;;;;;11.90;4.93;;;;;;;11.87;53.97;102043.44;5096389;27;20032;-70
2023/04/27 09:06:07;;;;;;;10.43;4.85;;;;;;;12.32;54.42;102036.72;5081360;27;20151;-70
2023/04/27 09:08:47;;;;;;;10.25;4.22;;;;;;;11.98;53.05;102035.75;5098928;27;20038;-72
2023/04/27 09:11:30;;;;;;;5.97;4.40;;;;;;;12.38;54.78;102034.56;5094606;27;20043;-72
2023/04/27 09:13:57;;;;;;;6.30;4.88;;;;;;;12.19;53.85;102033.78;5088422;27;20071;-70
2023/04/27 09:16:27;;;;;;;8.25;5.07;;;;;;;12.05;53.17;102031.84;5074240;27;20889;-73
2023/04/27 09:18:54;;;;;;;6.57;3.72;;;;;;;12.18;50.99;102037.41;5076652;27;20060;-70
2023/04/27 09:21:24;;;;;;;8.10;3.85;;;;;;;12.04;49.94;102027.41;5090911;27;20233;-72
2023/04/27 09:23:51;;;;;;;7.90;3.58;;;;;;;11.94;49.25;102026.13;5091672;27;20059;-70
2023/04/27 09:26:25;;;;;;;6.95;4.03;;;;;;;12.37;51.51;102032.00;5071929;27;20035;-72
2023/04/27 09:28:56;;;;;;;4.82;3.50;;;;;;;12.11;49.94;102030.66;5089827;27;20040;-72
2023/04/27 09:31:33;;;;;;;6.70;3.42;;;;;;;12.16;49.01;102032.16;5088230;27;20039;-70
2023/04/27 09:33:59;;;;;;;7.55;4.18;;;;;;;12.42;49.43;102019.25;5098194;27;20245;-72
2023/04/27 09:36:25;;;;;;;5.70;3.60;;;;;;;12.45;48.43;102024.44;5090694;27;20032;-72
2023/04/27 09:38:51;;;;;;;7.32;3.67;;;;;;;12.86;46.50;102024.06;5060924;27;20044;-72
2023/04/27 09:41:18;;;;;;;8.35;3.88;;;;;;;12.30;45.69;102010.06;5069262;27;20052;-72
2023/04/27 09:43:46;;;;;;;8.20;4.47;;;;;;;12.63;47.10;102004.72;5093936;27;20044;-72
2023/04/27 09:46:15;;;;;;;8.52;4.65;;;;;;;12.15;50.63;102006.38;5064928;28;20148;-70
2023/04/27 09:48:41;;;;;;;7.95;3.70;;;;;;;12.69;47.54;102006.22;5094695;27;20038;-72
2023/04/27 09:51:07;;;;;;;11.48;4.50;;;;;;;12.88;49.43;102004.28;5092910;27;20054;-72
2023/04/27 09:53:40;;;;;;;8.50;4.13;;;;;;;12.88;46.42;101998.91;5094448;27;20116;-72
2023/04/27 09:56:27;;;;;;;5.70;4.60;;;;;;;12.45;48.29;102003.03;5088394;27;20123;-72
2023/04/27 09:59:32;;;;;;;12.57;4.22;;;;;;;13.33;47.33;101999.16;5074488;27;20082;-70
2023/04/27 10:01:59;;;;;;;8.02;4.53;;;;;;;13.45;46.98;101996.66;5078739;28;20062;-70
2023/04/27 10:05:03;;;;;;;12.95;4.70;;;;;;;13.27;48.25;102000.38;5094589;27;21558;-70
2023/04/27 10:07:30;;;;;;;7.00;4.72;;;;;;;13.50;48.73;101990.16;5073730;27;20036;-69
2023/04/27 10:10:00;;;;;;;10.23;5.22;;;;;;;12.74;46.57;102000.59;5092968;27;20087;-72
2023/04/27 10:12:31;;;;;;;9.93;6.28;;;;;;;12.25;45.51;102003.19;5076391;27;20576;-70
2023/04/27 10:14:59;;;;;;;7.68;4.85;;;;;;;12.69;46.73;101996.34;5095850;27;20090;-72
2023/04/27 10:17:34;;;;;;;11.85;5.38;;;;;;;13.49;45.51;101991.97;5079731;27;20032;-70
2023/04/27 10:20:01;;;;;;;9.80;4.88;;;;;;;13.81;45.46;101989.28;5090600;27;21081;-72
2023/04/27 10:22:57;;;;;;;12.27;5.10;;;;;;;13.66;45.96;101986.53;5076664;27;20032;-70
2023/04/27 10:25:24;;;;;;;6.45;4.80;;;;;;;13.26;46.99;101985.25;5056633;27;20096;-71
2023/04/27 10:28:16;;;;;;;11.30;5.25;;;;;;;13.66;47.47;101981.16;5073847;27;21008;-71
2023/04/27 10:30:48;;;;;;;7.50;4.40;;;;;;;13.58;45.37;101985.25;5097045;27;20032;-71
2023/04/27 10:33:22;;;;;;;11.48;4.93;;;;;;;13.30;45.14;101984.13;5088304;27;20047;-71
2023/04/27 10:35:56;;;;;;;7.28;4.50;;;;;;;12.98;43.24;101988.56;5091892;27;20036;-71
2023/04/27 10:38:27;;;;;;;7.45;5.05;;;;;;;13.32;45.00;101989.41;5090749;27;20028;-71
2023/04/27 10:41:00;;;;;;;8.57;5.50;;;;;;;13.58;47.79;101983.41;5096666;27;20040;-70
2023/04/27 10:43:28;;;;;;;9.23;4.93;;;;;;;13.72;45.58;101983.47;5093255;27;20082;-71
2023/04/27 10:45:54;;;;;;;8.15;5.07;;;;;;;13.76;47.46;101983.31;5095371;27;20042;-71
2023/04/27 10:48:21;;;;;;;10.07;5.50;;;;;;;14.13;45.33;101980.16;5080438;28;20032;-71
2023/04/27 10:50:49;;;;;;;8.25;4.90;;;;;;;14.13;46.17;101974.81;5079858;27;20048;-71
2023/04/27 10:53:16;;;;;;;7.13;4.32;;;;;;;13.78;45.95;101973.34;5090199;27;20508;-71
2023/04/27 10:55:41;;;;;;;7.85;4.97;;;;;;;13.90;46.66;101986.03;5076681;27;20063;-71
2023/04/27 10:58:07;;;;;;;12.55;4.70;;;;;;;14.04;46.19;101977.16;5091219;27;20046;-71
2023/04/27 11:00:36;;;;;;;9.80;4.70;;;;;;;13.96;45.07;101972.28;5096629;27;20054;-71
2023/04/27 11:03:10;;;;;;;6.10;4.53;;;;;;;13.90;44.48;101968.13;5083341;27;20044;-71
2023/04/27 11:05:36;;;;;;;13.63;5.18;;;;;;;14.16;44.87;101974.63;5100501;27;21332;-69
2023/04/27 11:08:09;;;;;;;6.03;4.20;;;;;;;14.13;46.90;101985.53;5076420;27;20790;-70
2023/04/27 11:10:43;;;;;;;9.07;4.93;;;;;;;13.98;45.99;101978.41;5078144;27;20044;-72
2023/04/27 11:13:11;;;;;;;8.40;5.18;;;;;;;13.51;45.57;101976.69;5081314;27;20110;-72
2023/04/27 11:15:44;;;;;;;8.00;4.57;;;;;;;13.37;45.44;101974.78;5101498;27;20186;-72
2023/04/27 11:18:09;;;;;;;7.30;4.60;;;;;;;13.78;44.64;101962.63;5096406;27;20236;-71
2023/04/27 11:20:35;;;;;;;6.20;4.22;;;;;;;14.23;46.21;101964.38;5080107;27;20530;-71